Time;durP1;ratioP1;P1;durP2;ratioP2;P2;SDS_P1;SDS_P2;PMS_P1;PMS_P2;Temp;Humidity;BMP_temperature;BMP_pressure;BME280_temperature;BME280_humidity;BME280_pressure;Samples;Min_cycle;Max_cycle;Signal;HPM_P1;HPM_P2
2023/04/17 00:00:27;;;;;;;9.30;8.40;;;;;;;;;;5044047;28;20236;-51
2023/04/17 00:02:54;;;;;;;11.10;9.93;;;;;;;;;;5038204;28;20259;-53
2023/04/17 00:05:21;;;;;;;11.13;10.03;;;;;;;;;;5034360;28;20236;-53
2023/04/17 00:07:48;;;;;;;10.07;8.50;;;;;;;;;;5045510;28;20286;-52
2023/04/17 00:10:15;;;;;;;9.80;8.87;;;;;;;;;;5043205;28;20224;-52
2023/04/17 00:12:43;;;;;;;9.40;8.50;;;;;;;;;;5045064;28;20232;-52
2023/04/17 00:15:09;;;;;;;10.67;9.17;;;;;;;;;;5042839;28;20223;-52
2023/04/17 00:17:36;;;;;;;10.20;9.20;;;;;;;;;;5044802;28;20255;-53
2023/04/17 00:20:06;;;;;;;10.43;9.37;;;;;;;;;;5040740;28;20231;-53
2023/04/17 00:22:33;;;;;;;10.40;9.20;;;;;;;;;;5041031;28;20232;-51
2023/04/17 00:25:00;;;;;;;9.53;8.73;;;;;;;;;;5029207;28;20232;-52
2023/04/17 00:27:27;;;;;;;11.67;10.07;;;;;;;;;;5043527;28;20235;-52
2023/04/17 00:29:55;;;;;;;10.77;9.67;;;;;;;;;;5042669;28;20273;-51
2023/04/17 00:32:22;;;;;;;10.17;9.13;;;;;;;;;;5033521;28;20234;-51
2023/04/17 00:34:50;;;;;;;14.33;9.60;;;;;;;;;;5054784;28;20263;-52
2023/04/17 00:37:18;;;;;;;11.17;10.07;;;;;;;;;;5040735;28;20236;-52
2023/04/17 00:39:45;;;;;;;9.63;8.63;;;;;;;;;;5033683;28;20238;-52
2023/04/17 00:42:12;;;;;;;11.63;8.60;;;;;;;;;;5040096;28;20231;-52
2023/04/17 00:44:39;;;;;;;13.03;10.57;;;;;;;;;;5042106;28;20235;-52
2023/04/17 00:47:07;;;;;;;11.60;10.50;;;;;;;;;;5038995;28;20236;-53
2023/04/17 00:49:34;;;;;;;10.30;9.20;;;;;;;;;;5039472;28;20227;-55
2023/04/17 00:52:01;;;;;;;10.73;9.63;;;;;;;;;;5039824;28;20238;-52
2023/04/17 00:54:28;;;;;;;12.23;10.17;;;;;;;;;;5021236;28;20273;-53
2023/04/17 00:56:56;;;;;;;13.10;9.37;;;;;;;;;;5048151;28;20228;-53
2023/04/17 00:59:23;;;;;;;9.87;8.87;;;;;;;;;;5023093;28;20322;-52
2023/04/17 01:01:54;;;;;;;10.03;9.03;;;;;;;;;;5037600;28;20231;-52
2023/04/17 01:04:22;;;;;;;11.63;9.17;;;;;;;;;;5039821;28;20972;-52
2023/04/17 01:06:49;;;;;;;11.90;9.13;;;;;;;;;;5035064;28;20235;-52
2023/04/17 01:09:16;;;;;;;10.70;9.50;;;;;;;;;;5035481;28;20311;-51
2023/04/17 01:11:42;;;;;;;11.20;9.93;;;;;;;;;;5041162;28;20228;-54
2023/04/17 01:14:10;;;;;;;12.57;10.17;;;;;;;;;;5021823;28;20232;-52
2023/04/17 01:16:39;;;;;;;10.40;9.40;;;;;;;;;;5042228;28;20228;-53
2023/04/17 01:19:06;;;;;;;11.37;10.10;;;;;;;;;;5029322;28;20258;-52
2023/04/17 01:21:34;;;;;;;10.37;9.27;;;;;;;;;;5047087;28;20330;-52
2023/04/17 01:24:03;;;;;;;11.70;10.00;;;;;;;;;;5032135;28;20787;-54
2023/04/17 01:26:31;;;;;;;11.70;10.57;;;;;;;;;;5049801;28;20253;-51
2023/04/17 01:28:58;;;;;;;11.77;9.57;;;;;;;;;;5034383;28;20271;-52
2023/04/17 01:31:26;;;;;;;11.93;8.90;;;;;;;;;;5035303;28;20236;-51
2023/04/17 01:33:52;;;;;;;12.83;10.57;;;;;;;;;;5041205;28;20241;-53
2023/04/17 01:36:19;;;;;;;10.93;9.77;;;;;;;;;;5038852;28;20235;-52
2023/04/17 01:38:46;;;;;;;15.43;11.03;;;;;;;;;;5042639;28;20231;-51
2023/04/17 01:41:15;;;;;;;11.33;10.17;;;;;;;;;;5054449;28;20620;-51
2023/04/17 01:43:45;;;;;;;12.57;10.03;;;;;;;;;;5041992;28;20220;-52
2023/04/17 01:46:12;;;;;;;14.33;10.37;;;;;;;;;;5048849;28;20231;-52
2023/04/17 01:48:39;;;;;;;10.60;9.57;;;;;;;;;;5035139;28;20591;-53
2023/04/17 01:51:06;;;;;;;12.13;8.80;;;;;;;;;;5036607;28;20307;-53
2023/04/17 01:53:33;;;;;;;10.17;9.07;;;;;;;;;;5044330;28;20665;-52
2023/04/17 01:56:00;;;;;;;10.57;9.47;;;;;;;;;;5047304;28;20232;-52
2023/04/17 01:58:29;;;;;;;10.37;8.97;;;;;;;;;;5041929;28;20262;-52
2023/04/17 02:00:56;;;;;;;11.40;10.23;;;;;;;;;;5020584;28;20244;-52
2023/04/17 02:03:23;;;;;;;11.00;8.93;;;;;;;;;;5039371;28;20311;-53
2023/04/17 02:05:50;;;;;;;10.63;9.53;;;;;;;;;;5043990;28;22033;-54
2023/04/17 02:08:16;;;;;;;10.97;9.77;;;;;;;;;;5019006;28;20235;-53
2023/04/17 02:10:43;;;;;;;13.93;10.23;;;;;;;;;;5024910;28;20280;-53
2023/04/17 02:13:13;;;;;;;11.60;10.40;;;;;;;;;;5041934;28;20923;-52
2023/04/17 02:15:42;;;;;;;10.47;9.33;;;;;;;;;;5033133;28;20246;-54
2023/04/17 02:18:09;;;;;;;12.43;10.10;;;;;;;;;;5023981;28;20870;-53
2023/04/17 02:20:36;;;;;;;11.40;9.90;;;;;;;;;;5028098;28;20228;-53
2023/04/17 02:23:03;;;;;;;11.33;10.23;;;;;;;;;;5036054;28;21068;-53
2023/04/17 02:25:30;;;;;;;11.23;9.93;;;;;;;;;;5040063;28;20314;-52
2023/04/17 02:27:56;;;;;;;10.83;9.67;;;;;;;;;;5039239;28;20236;-53
2023/04/17 02:30:23;;;;;;;11.43;10.23;;;;;;;;;;5034471;28;20223;-54
2023/04/17 02:32:52;;;;;;;14.23;10.03;;;;;;;;;;5047172;28;20227;-52
2023/04/17 02:35:19;;;;;;;12.93;9.90;;;;;;;;;;5031010;28;20235;-53
2023/04/17 02:37:46;;;;;;;9.40;8.43;;;;;;;;;;5043306;28;20239;-52
2023/04/17 02:40:13;;;;;;;12.00;10.70;;;;;;;;;;5042488;28;20297;-54
2023/04/17 02:42:39;;;;;;;13.07;10.30;;;;;;;;;;5048566;28;20232;-53
2023/04/17 02:45:07;;;;;;;11.73;10.53;;;;;;;;;;5044159;28;20258;-52
2023/04/17 02:47:35;;;;;;;12.93;10.00;;;;;;;;;;5042709;28;20239;-52
2023/04/17 02:50:03;;;;;;;11.17;9.97;;;;;;;;;;5034758;28;20223;-54
2023/04/17 02:52:30;;;;;;;11.67;9.73;;;;;;;;;;5033322;28;20231;-53
2023/04/17 02:54:57;;;;;;;10.27;8.97;;;;;;;;;;5036464;28;20265;-54
2023/04/17 02:57:24;;;;;;;13.40;10.10;;;;;;;;;;5043045;28;20778;-53
2023/04/17 02:59:51;;;;;;;11.70;9.87;;;;;;;;;;5027821;28;20765;-53
2023/04/17 03:02:20;;;;;;;11.73;10.53;;;;;;;;;;5041977;28;20234;-53
2023/04/17 03:04:47;;;;;;;14.20;12.07;;;;;;;;;;5040287;28;20239;-52
2023/04/17 03:07:17;;;;;;;13.20;10.20;;;;;;;;;;5045859;28;20321;-52
2023/04/17 03:09:44;;;;;;;13.63;10.50;;;;;;;;;;5007393;28;20232;-53
2023/04/17 03:12:11;;;;;;;11.97;9.90;;;;;;;;;;5043226;28;20226;-53
2023/04/17 03:14:38;;;;;;;13.33;10.47;;;;;;;;;;5026743;28;21012;-52
2023/04/17 03:17:05;;;;;;;12.07;9.93;;;;;;;;;;5022331;28;20282;-53
2023/04/17 03:19:31;;;;;;;19.90;10.70;;;;;;;;;;5040288;28;20235;-53
2023/04/17 03:21:58;;;;;;;11.70;10.33;;;;;;;;;;5036830;28;20236;-53
2023/04/17 03:24:26;;;;;;;14.80;10.30;;;;;;;;;;5040317;28;20228;-53
2023/04/17 03:26:53;;;;;;;12.60;9.60;;;;;;;;;;5036112;28;20622;-54
2023/04/17 03:29:20;;;;;;;12.77;11.27;;;;;;;;;;5048371;28;20240;-54
2023/04/17 03:31:47;;;;;;;10.77;9.70;;;;;;;;;;5036382;28;20232;-52
2023/04/17 03:34:14;;;;;;;11.87;10.33;;;;;;;;;;5032465;28;20688;-54
2023/04/17 03:36:40;;;;;;;12.07;10.10;;;;;;;;;;5030001;28;20231;-52
2023/04/17 03:39:07;;;;;;;13.57;11.30;;;;;;;;;;5045903;28;20309;-52
2023/04/17 03:41:37;;;;;;;12.63;9.47;;;;;;;;;;5036720;28;20232;-53
2023/04/17 03:44:04;;;;;;;13.57;10.37;;;;;;;;;;5043589;28;20234;-53
2023/04/17 03:46:30;;;;;;;10.90;9.83;;;;;;;;;;5032140;28;20222;-54
2023/04/17 03:48:57;;;;;;;13.57;11.37;;;;;;;;;;5036525;28;20251;-53
2023/04/17 03:51:25;;;;;;;11.03;9.60;;;;;;;;;;5041356;28;20224;-55
2023/04/17 03:53:52;;;;;;;11.53;9.60;;;;;;;;;;5043327;28;20317;-54
2023/04/17 03:56:20;;;;;;;12.37;10.67;;;;;;;;;;5058694;28;20250;-52
2023/04/17 03:58:48;;;;;;;14.53;11.10;;;;;;;;;;5031092;28;20236;-52
2023/04/17 04:01:15;;;;;;;11.97;10.60;;;;;;;;;;5039629;28;20231;-51
2023/04/17 04:03:42;;;;;;;14.93;12.00;;;;;;;;;;5054343;28;20314;-52
2023/04/17 04:06:08;;;;;;;15.23;11.87;;;;;;;;;;5041654;28;20236;-52
2023/04/17 04:08:37;;;;;;;14.73;11.47;;;;;;;;;;5030186;28;20312;-55
2023/04/17 04:11:04;;;;;;;10.83;9.73;;;;;;;;;;5035338;28;20235;-52
2023/04/17 04:13:32;;;;;;;14.93;11.53;;;;;;;;;;5030997;28;20234;-52
2023/04/17 04:16:04;;;;;;;12.40;10.10;;;;;;;;;;5053264;28;20767;-51
2023/04/17 04:18:31;;;;;;;13.93;10.73;;;;;;;;;;5051598;28;20231;-51
2023/04/17 04:20:58;;;;;;;17.50;11.70;;;;;;;;;;5034960;28;20241;-51
2023/04/17 04:23:26;;;;;;;14.23;12.73;;;;;;;;;;5020693;28;20227;-52
2023/04/17 04:25:55;;;;;;;14.00;12.17;;;;;;;;;;5045266;28;20220;-51
2023/04/17 04:28:23;;;;;;;12.40;11.17;;;;;;;;;;5035254;28;20239;-52
2023/04/17 04:30:51;;;;;;;15.63;12.27;;;;;;;;;;5017194;28;20285;-51
2023/04/17 04:33:20;;;;;;;13.03;11.17;;;;;;;;;;5010809;28;20223;-51
2023/04/17 04:35:47;;;;;;;13.57;12.03;;;;;;;;;;5031659;28;20308;-53
2023/04/17 04:38:16;;;;;;;14.30;11.77;;;;;;;;;;5040290;28;20265;-52
2023/04/17 04:40:48;;;;;;;15.87;12.93;;;;;;;;;;5029624;28;20255;-51
2023/04/17 04:43:15;;;;;;;13.47;12.00;;;;;;;;;;5042144;28;20667;-52
2023/04/17 04:45:42;;;;;;;14.37;12.87;;;;;;;;;;5043540;28;20273;-52
2023/04/17 04:48:09;;;;;;;12.50;10.80;;;;;;;;;;5047077;28;20619;-53
2023/04/17 04:50:37;;;;;;;14.10;12.53;;;;;;;;;;5044744;28;20236;-54
2023/04/17 04:53:04;;;;;;;15.57;12.43;;;;;;;;;;5033383;28;20320;-51
2023/04/17 04:55:31;;;;;;;13.47;12.07;;;;;;;;;;5043539;28;20326;-51
2023/04/17 04:57:57;;;;;;;17.27;12.90;;;;;;;;;;5034306;28;20258;-52
2023/04/17 05:00:25;;;;;;;17.10;12.37;;;;;;;;;;5044629;28;20232;-52
2023/04/17 05:02:52;;;;;;;14.13;12.20;;;;;;;;;;5043419;28;20255;-52
2023/04/17 05:05:21;;;;;;;15.30;13.73;;;;;;;;;;5039023;28;20889;-52
2023/04/17 05:07:52;;;;;;;15.53;12.60;;;;;;;;;;5042077;28;20751;-52
2023/04/17 05:10:19;;;;;;;16.30;12.50;;;;;;;;;;5035919;28;20223;-52
2023/04/17 05:12:46;;;;;;;16.37;13.30;;;;;;;;;;5029910;28;20714;-54
2023/04/17 05:15:13;;;;;;;15.17;13.43;;;;;;;;;;5061971;28;20318;-53
2023/04/17 05:17:40;;;;;;;13.60;12.10;;;;;;;;;;5053415;28;20232;-52
2023/04/17 05:20:08;;;;;;;16.87;12.63;;;;;;;;;;5049316;28;20226;-55
2023/04/17 05:22:35;;;;;;;15.77;14.07;;;;;;;;;;5035309;28;20602;-52
2023/04/17 05:25:03;;;;;;;14.77;13.23;;;;;;;;;;5042519;28;20318;-53
2023/04/17 05:27:30;;;;;;;17.53;14.50;;;;;;;;;;5039993;28;20574;-53
2023/04/17 05:29:56;;;;;;;17.93;15.40;;;;;;;;;;5047570;28;20236;-52
2023/04/17 05:32:23;;;;;;;19.40;15.13;;;;;;;;;;5053555;28;20227;-52
2023/04/17 05:34:50;;;;;;;24.33;15.50;;;;;;;;;;5052561;28;20377;-53
2023/04/17 05:37:17;;;;;;;18.90;15.00;;;;;;;;;;5051347;28;20232;-52
2023/04/17 05:39:43;;;;;;;16.70;13.93;;;;;;;;;;5038964;28;20318;-52
2023/04/17 05:42:11;;;;;;;21.30;15.30;;;;;;;;;;5051212;28;20227;-52
2023/04/17 05:44:38;;;;;;;18.97;15.37;;;;;;;;;;5052401;28;20224;-52
2023/04/17 05:47:07;;;;;;;20.43;16.40;;;;;;;;;;5057282;28;20706;-53
2023/04/17 05:49:33;;;;;;;17.50;15.40;;;;;;;;;;5054356;28;20231;-53
2023/04/17 05:52:00;;;;;;;21.43;15.37;;;;;;;;;;5040420;28;20232;-51
2023/04/17 05:54:29;;;;;;;20.87;17.00;;;;;;;;;;5046510;28;20672;-52
2023/04/17 05:56:58;;;;;;;19.87;16.83;;;;;;;;;;5041211;28;20733;-53
2023/04/17 05:59:27;;;;;;;18.43;15.87;;;;;;;;;;5051716;28;20589;-52
2023/04/17 06:01:53;;;;;;;20.67;16.70;;;;;;;;;;5048486;28;20323;-53
2023/04/17 06:04:20;;;;;;;23.70;16.90;;;;;;;;;;5053320;28;20245;-53
2023/04/17 06:06:47;;;;;;;18.80;15.70;;;;;;;;;;5045442;28;20232;-51
2023/04/17 06:09:13;;;;;;;19.80;17.00;;;;;;;;;;5047523;28;21038;-51
2023/04/17 06:11:40;;;;;;;16.83;14.73;;;;;;;;;;5044640;28;20305;-52
2023/04/17 06:14:06;;;;;;;24.23;17.03;;;;;;;;;;5052374;28;20228;-51
2023/04/17 06:16:35;;;;;;;23.07;18.17;;;;;;;;;;5046271;28;20351;-52
2023/04/17 06:19:01;;;;;;;19.20;16.53;;;;;;;;;;5045131;28;20236;-52
2023/04/17 06:21:30;;;;;;;17.63;15.70;;;;;;;;;;5043300;28;20235;-51
2023/04/17 06:23:57;;;;;;;23.30;17.17;;;;;;;;;;5049169;28;20299;-52
2023/04/17 06:26:23;;;;;;;22.23;17.43;;;;;;;;;;5053408;28;20260;-52
2023/04/17 06:28:50;;;;;;;29.80;18.67;;;;;;;;;;5049647;28;20315;-51
2023/04/17 06:31:17;;;;;;;24.70;17.30;;;;;;;;;;5055042;28;20300;-51
2023/04/17 06:33:46;;;;;;;18.60;15.67;;;;;;;;;;5041753;28;20223;-51
2023/04/17 06:36:13;;;;;;;24.20;16.87;;;;;;;;;;5041233;28;20726;-51
2023/04/17 06:38:39;;;;;;;21.93;16.80;;;;;;;;;;5042911;28;20297;-51
2023/04/17 06:41:06;;;;;;;21.70;17.40;;;;;;;;;;5045801;28;20259;-51
2023/04/17 06:43:32;;;;;;;23.03;18.40;;;;;;;;;;5041499;28;20318;-52
2023/04/17 06:45:59;;;;;;;22.40;17.37;;;;;;;;;;5048989;28;20239;-52
2023/04/17 06:48:26;;;;;;;22.60;18.93;;;;;;;;;;5045711;28;20243;-52
2023/04/17 06:50:54;;;;;;;20.23;16.53;;;;;;;;;;5052127;28;20262;-52
2023/04/17 06:53:21;;;;;;;23.63;18.43;;;;;;;;;;5034787;28;20289;-52
2023/04/17 06:55:47;;;;;;;21.73;18.23;;;;;;;;;;5055021;28;20255;-52
2023/04/17 06:58:14;;;;;;;22.60;18.67;;;;;;;;;;5053685;28;20333;-51
2023/04/17 07:00:41;;;;;;;22.17;16.70;;;;;;;;;;5047991;28;20259;-52
2023/04/17 07:03:07;;;;;;;23.10;18.13;;;;;;;;;;5038219;28;20244;-52
2023/04/17 07:05:33;;;;;;;19.10;15.80;;;;;;;;;;5031279;28;20236;-53
2023/04/17 07:08:01;;;;;;;19.13;17.17;;;;;;;;;;5047836;28;20231;-52
2023/04/17 07:10:28;;;;;;;25.80;17.50;;;;;;;;;;5056564;28;20389;-53
2023/04/17 07:12:55;;;;;;;23.93;17.10;;;;;;;;;;5047733;28;20887;-52
2023/04/17 07:15:22;;;;;;;22.17;17.23;;;;;;;;;;5054110;28;20702;-53
2023/04/17 07:17:48;;;;;;;22.60;15.90;;;;;;;;;;5047069;28;20289;-52
2023/04/17 07:20:15;;;;;;;20.43;16.87;;;;;;;;;;5046059;28;20221;-51
2023/04/17 07:22:42;;;;;;;19.93;16.47;;;;;;;;;;5049999;28;20699;-52
2023/04/17 07:25:10;;;;;;;25.47;16.77;;;;;;;;;;5047025;28;20227;-52
2023/04/17 07:27:37;;;;;;;21.77;15.63;;;;;;;;;;5040477;28;20233;-52
2023/04/17 07:30:05;;;;;;;23.33;17.97;;;;;;;;;;5041738;28;20234;-51
2023/04/17 07:32:32;;;;;;;20.10;16.87;;;;;;;;;;5053236;28;20235;-53
2023/04/17 07:34:58;;;;;;;22.37;15.53;;;;;;;;;;5043047;28;20266;-52
2023/04/17 07:37:25;;;;;;;20.27;15.70;;;;;;;;;;5044954;28;20250;-51
2023/04/17 07:39:52;;;;;;;24.27;18.73;;;;;;;;;;5054420;28;20238;-52
2023/04/17 07:42:20;;;;;;;20.00;16.37;;;;;;;;;;5046640;28;20267;-51
2023/04/17 07:44:48;;;;;;;18.57;16.40;;;;;;;;;;5051922;28;20262;-52
2023/04/17 07:47:14;;;;;;;18.37;15.90;;;;;;;;;;5047822;28;20234;-51
2023/04/17 07:49:45;;;;;;;19.00;17.03;;;;;;;;;;5045062;28;20276;-52
2023/04/17 07:52:11;;;;;;;17.70;15.80;;;;;;;;;;5048292;28;20235;-51
2023/04/17 07:54:39;;;;;;;19.27;16.63;;;;;;;;;;5059126;28;20616;-52
2023/04/17 07:57:07;;;;;;;21.53;16.80;;;;;;;;;;5045365;28;20270;-51
2023/04/17 07:59:35;;;;;;;20.57;17.53;;;;;;;;;;5046784;28;20247;-51
2023/04/17 08:02:02;;;;;;;17.57;15.40;;;;;;;;;;5043509;28;20259;-54
2023/04/17 08:04:29;;;;;;;24.03;17.00;;;;;;;;;;5049292;28;20909;-53
2023/04/17 08:06:56;;;;;;;20.43;15.20;;;;;;;;;;5047325;28;20223;-52
2023/04/17 08:09:22;;;;;;;19.63;16.10;;;;;;;;;;5042372;28;20284;-52
2023/04/17 08:11:49;;;;;;;22.37;18.40;;;;;;;;;;5040052;28;20710;-53
2023/04/17 08:14:16;;;;;;;20.30;16.97;;;;;;;;;;5040928;28;20235;-53
2023/04/17 08:16:44;;;;;;;20.77;16.27;;;;;;;;;;5048616;28;20246;-51
2023/04/17 08:19:10;;;;;;;22.10;15.60;;;;;;;;;;5035646;28;20910;-52
2023/04/17 08:21:37;;;;;;;18.23;16.30;;;;;;;;;;5039191;28;20752;-52
2023/04/17 08:24:03;;;;;;;22.83;17.63;;;;;;;;;;5035688;28;20309;-53
2023/04/17 08:26:30;;;;;;;20.10;16.30;;;;;;;;;;5037497;28;20241;-51
2023/04/17 08:29:00;;;;;;;21.73;16.30;;;;;;;;;;5047221;28;20243;-52
2023/04/17 08:31:26;;;;;;;18.73;16.20;;;;;;;;;;5047944;28;20228;-52
2023/04/17 08:33:54;;;;;;;20.53;16.43;;;;;;;;;;5045245;28;20243;-52
2023/04/17 08:36:21;;;;;;;19.90;15.83;;;;;;;;;;5048608;28;20235;-53
2023/04/17 08:38:47;;;;;;;21.17;15.90;;;;;;;;;;5058932;28;20326;-52
2023/04/17 08:41:17;;;;;;;25.17;17.40;;;;;;;;;;5043140;28;20651;-52
2023/04/17 08:43:45;;;;;;;22.47;16.80;;;;;;;;;;5055547;28;20765;-52
2023/04/17 08:46:12;;;;;;;19.23;15.63;;;;;;;;;;5036073;28;20260;-53
2023/04/17 08:48:38;;;;;;;18.37;14.83;;;;;;;;;;5043086;28;20246;-51
2023/04/17 08:51:06;;;;;;;20.63;15.37;;;;;;;;;;5055056;28;20238;-52
2023/04/17 08:53:33;;;;;;;17.13;15.33;;;;;;;;;;5047606;28;20613;-53
2023/04/17 08:56:03;;;;;;;19.33;15.07;;;;;;;;;;5047110;28;20290;-52
2023/04/17 08:58:32;;;;;;;17.93;14.80;;;;;;;;;;5046511;28;20318;-51
2023/04/17 09:01:06;;;;;;;18.97;15.73;;;;;;;;;;5047520;28;20318;-52
2023/04/17 09:03:39;;;;;;;16.67;14.73;;;;;;;;;;5045228;28;20231;-51
2023/04/17 09:06:08;;;;;;;18.33;14.30;;;;;;;;;;5056385;28;20341;-52
2023/04/17 09:08:34;;;;;;;18.57;14.80;;;;;;;;;;5038824;28;20298;-51
2023/04/17 09:11:01;;;;;;;20.27;14.50;;;;;;;;;;5044650;28;20249;-53
2023/04/17 09:13:29;;;;;;;17.00;12.97;;;;;;;;;;5036772;28;20236;-52
2023/04/17 09:16:03;;;;;;;16.70;14.17;;;;;;;;;;5041723;28;20237;-53
2023/04/17 09:18:30;;;;;;;16.00;14.37;;;;;;;;;;5039662;28;20297;-52
2023/04/17 09:20:58;;;;;;;20.27;14.57;;;;;;;;;;5043612;28;20625;-53
2023/04/17 09:23:27;;;;;;;14.30;12.73;;;;;;;;;;5045905;28;20882;-52
2023/04/17 09:26:06;;;;;;;21.67;13.30;;;;;;;;;;5052693;28;20425;-51
2023/04/17 09:28:34;;;;;;;15.90;13.03;;;;;;;;;;5059953;28;20238;-51
2023/04/17 09:31:02;;;;;;;16.63;13.00;;;;;;;;;;5036332;28;20238;-53
2023/04/17 09:33:29;;;;;;;14.30;12.77;;;;;;;;;;5046697;28;20251;-51
2023/04/17 09:35:55;;;;;;;18.10;12.33;;;;;;;;;;5048056;28;20318;-52
2023/04/17 09:38:36;;;;;;;16.03;12.80;;;;;;;;;;5046166;28;20231;-51
2023/04/17 09:41:02;;;;;;;14.87;12.67;;;;;;;;;;5054046;28;20231;-51
2023/04/17 09:43:41;;;;;;;14.50;13.00;;;;;;;;;;5047608;28;20231;-52
2023/04/17 09:46:07;;;;;;;15.37;13.10;;;;;;;;;;5043189;28;20641;-52
2023/04/17 09:48:33;;;;;;;15.37;12.33;;;;;;;;;;5046161;28;20232;-51
2023/04/17 09:51:01;;;;;;;14.83;12.00;;;;;;;;;;5047337;28;20236;-52
2023/04/17 09:53:27;;;;;;;14.63;12.90;;;;;;;;;;5039435;28;20283;-51
2023/04/17 09:55:55;;;;;;;15.07;13.03;;;;;;;;;;5047795;28;20297;-52
2023/04/17 09:58:22;;;;;;;13.70;12.00;;;;;;;;;;5045956;28;20236;-52
2023/04/17 10:00:48;;;;;;;12.33;11.13;;;;;;;;;;5046794;28;20232;-51
2023/04/17 10:03:16;;;;;;;16.87;12.57;;;;;;;;;;5050019;28;20833;-51
2023/04/17 10:05:43;;;;;;;12.50;10.80;;;;;;;;;;5038631;28;20507;-52
2023/04/17 10:08:09;;;;;;;14.03;12.63;;;;;;;;;;5050475;28;20243;-52
2023/04/17 10:10:35;;;;;;;14.93;11.87;;;;;;;;;;5045697;28;20232;-53
2023/04/17 10:13:05;;;;;;;16.17;12.53;;;;;;;;;;5057262;28;20829;-52
2023/04/17 10:15:32;;;;;;;12.17;10.97;;;;;;;;;;5041632;28;20311;-52
2023/04/17 10:18:14;;;;;;;12.17;10.60;;;;;;;;;;5048023;28;20235;-52
2023/04/17 10:20:43;;;;;;;13.60;10.80;;;;;;;;;;5048864;28;20228;-52
2023/04/17 10:23:32;;;;;;;12.33;11.03;;;;;;;;;;5042162;28;20228;-52
2023/04/17 10:26:18;;;;;;;13.80;11.03;;;;;;;;;;5047014;28;20264;-54
2023/04/17 10:28:49;;;;;;;12.77;10.87;;;;;;;;;;5039602;28;20232;-51
2023/04/17 10:31:15;;;;;;;12.00;10.17;;;;;;;;;;5055798;28;20235;-56
2023/04/17 10:33:48;;;;;;;15.47;12.07;;;;;;;;;;5043674;28;20315;-52
2023/04/17 10:36:36;;;;;;;15.90;11.03;;;;;;;;;;5050710;28;20239;-52
2023/04/17 10:39:16;;;;;;;14.47;10.30;;;;;;;;;;5043874;28;20240;-53
2023/04/17 10:41:58;;;;;;;12.87;10.50;;;;;;;;;;5036157;28;20599;-56
2023/04/17 10:44:24;;;;;;;11.37;10.20;;;;;;;;;;5024585;28;20320;-51
2023/04/17 10:46:51;;;;;;;13.00;11.57;;;;;;;;;;5031974;28;20236;-57
2023/04/17 10:49:17;;;;;;;14.32;12.45;;;;;;;;;;5025640;28;20236;-52
2023/04/17 10:51:43;;;;;;;16.33;11.57;;;;;;;;;;5032960;28;20703;-52
2023/04/17 10:54:12;;;;;;;14.77;10.50;;;;;;;;;;5041180;28;20236;-52
2023/04/17 10:56:41;;;;;;;13.95;10.15;;;;;;;;;;5020223;28;20312;-52
2023/04/17 10:59:08;;;;;;;11.43;10.23;;;;;;;;;;5035363;28;20238;-51
2023/04/17 11:01:38;;;;;;;11.55;10.15;;;;;;;;;;5045214;28;20228;-52
2023/04/17 11:04:04;;;;;;;12.27;10.57;;;;;;;;;;5048183;28;20665;-51
2023/04/17 11:06:31;;;;;;;12.95;10.63;;;;;;;;;;5044265;28;20232;-51
2023/04/17 11:08:59;;;;;;;12.02;10.50;;;;;;;;;;5056130;28;20253;-52
2023/04/17 11:11:25;;;;;;;15.70;10.30;;;;;;;;;;5052713;28;20232;-50
2023/04/17 11:13:53;;;;;;;11.15;9.98;;;;;;;;;;5041482;28;20228;-51
2023/04/17 11:16:21;;;;;;;11.95;10.65;;;;;;;;;;5047734;28;20230;-52
2023/04/17 11:18:48;;;;;;;12.70;10.70;;;;;;;;;;5047313;28;20932;-52
2023/04/17 11:21:15;;;;;;;11.55;10.07;;;;;;;;;;5046919;28;20251;-52
2023/04/17 11:23:49;;;;;;;10.73;9.63;;;;;;;;;;5044032;28;20238;-53
2023/04/17 11:26:17;;;;;;;13.80;11.48;;;;;;;;;;5045131;28;20314;-52
2023/04/17 11:28:43;;;;;;;12.27;10.13;;;;;;;;;;5048069;28;20232;-53
2023/04/17 11:31:13;;;;;;;13.52;10.73;;;;;;;;;;5045492;28;20242;-53
2023/04/17 11:33:40;;;;;;;10.05;8.77;;;;;;;;;;5051901;28;20328;-52
2023/04/17 11:36:07;;;;;;;10.45;9.20;;;;;;;;;;5049324;28;20322;-52
2023/04/17 11:38:33;;;;;;;13.57;9.82;;;;;;;;;;5052494;28;20255;-53
2023/04/17 11:41:01;;;;;;;10.48;9.45;;;;;;;;;;5055925;28;20770;-52
2023/04/17 11:43:28;;;;;;;13.38;9.75;;;;;;;;;;5043258;28;20231;-51
2023/04/17 11:45:55;;;;;;;13.85;10.48;;;;;;;;;;5048761;28;20319;-52
2023/04/17 11:48:23;;;;;;;14.98;10.45;;;;;;;;;;5047182;28;20236;-51
2023/04/17 11:50:53;;;;;;;17.92;10.38;;;;;;;;;;5044490;28;20231;-52
2023/04/17 11:53:20;;;;;;;10.82;9.13;;;;;;;;;;5044566;28;20247;-51
2023/04/17 11:55:47;;;;;;;9.95;7.78;;;;;;;;;;5057768;28;20228;-52
2023/04/17 11:58:13;;;;;;;11.60;8.10;;;;;;;;;;5047483;28;20234;-53
2023/04/17 12:00:41;;;;;;;9.45;8.55;;;;;;;;;;5039561;28;20624;-52
2023/04/17 12:03:23;;;;;;;10.40;9.38;;;;;;;;;;5050520;28;20261;-55
2023/04/17 12:05:59;;;;;;;11.30;10.23;;;;;;;;;;5037399;28;20236;-52
2023/04/17 12:08:25;;;;;;;13.27;8.75;;;;;;;;;;5057277;28;20241;-53
2023/04/17 12:10:52;;;;;;;10.20;9.02;;;;;;;;;;5049658;28;20370;-51
2023/04/17 12:13:18;;;;;;;13.57;10.38;;;;;;;;;;5044912;28;20235;-52
2023/04/17 12:15:45;;;;;;;11.52;9.73;;;;;;;;;;5052415;28;20310;-51
2023/04/17 12:18:11;;;;;;;12.65;10.38;;;;;;;;;;5048343;28;20231;-52
2023/04/17 12:20:38;;;;;;;10.93;9.95;;;;;;;;;;5044467;28;20314;-52
2023/04/17 12:23:06;;;;;;;11.17;10.00;;;;;;;;;;5048255;28;20227;-51
2023/04/17 12:25:33;;;;;;;12.68;11.13;;;;;;;;;;5049776;28;20227;-52
2023/04/17 12:28:00;;;;;;;17.50;10.93;;;;;;;;;;5047018;28;20240;-52
2023/04/17 12:30:26;;;;;;;11.83;9.97;;;;;;;;;;5044713;28;20243;-53
2023/04/17 12:32:53;;;;;;;12.67;10.97;;;;;;;;;;5037631;28;20226;-53
2023/04/17 12:35:19;;;;;;;11.60;10.40;;;;;;;;;;5041587;28;20228;-52
2023/04/17 12:37:48;;;;;;;12.17;10.97;;;;;;;;;;5042965;28;20636;-52
2023/04/17 12:40:16;;;;;;;11.40;10.07;;;;;;;;;;5046935;28;20460;-52
2023/04/17 12:42:43;;;;;;;11.97;9.77;;;;;;;;;;5037470;28;20227;-54
2023/04/17 12:45:09;;;;;;;13.10;11.77;;;;;;;;;;5050778;28;20239;-52
2023/04/17 12:47:36;;;;;;;13.50;11.63;;;;;;;;;;5045687;28;20768;-52
2023/04/17 12:50:02;;;;;;;18.07;11.37;;;;;;;;;;5035563;28;20231;-52
2023/04/17 12:52:28;;;;;;;12.77;11.43;;;;;;;;;;5049178;28;20261;-55
2023/04/17 12:54:58;;;;;;;13.40;12.00;;;;;;;;;;5045057;28;20784;-52
2023/04/17 12:57:26;;;;;;;12.57;11.27;;;;;;;;;;5044354;28;20892;-52
2023/04/17 12:59:53;;;;;;;12.23;10.93;;;;;;;;;;5024107;28;20256;-51
2023/04/17 13:02:19;;;;;;;12.07;10.53;;;;;;;;;;5045351;28;20617;-52
2023/04/17 13:04:46;;;;;;;10.47;9.30;;;;;;;;;;5028418;22;20241;-52
2023/04/17 13:07:13;;;;;;;12.03;8.73;;;;;;;;;;4997338;28;20240;-53
2023/04/17 13:09:40;;;;;;;10.10;9.10;;;;;;;;;;5002199;28;20317;-52
2023/04/17 13:12:06;;;;;;;11.23;9.73;;;;;;;;;;4997821;28;20704;-54
2023/04/17 13:14:34;;;;;;;11.60;9.10;;;;;;;;;;5005280;28;20954;-51
2023/04/17 13:17:01;;;;;;;10.90;9.53;;;;;;;;;;5007975;28;20237;-51
2023/04/17 13:19:28;;;;;;;12.17;9.93;;;;;;;;;;4997960;28;20240;-53
2023/04/17 13:21:54;;;;;;;15.60;11.07;;;;;;;;;;4997477;28;20613;-53
2023/04/17 13:24:21;;;;;;;10.67;9.67;;;;;;;;;;5004587;28;20276;-52
2023/04/17 13:26:47;;;;;;;13.23;10.67;;;;;;;;;;4999597;28;20238;-54
2023/04/17 13:29:14;;;;;;;12.50;10.93;;;;;;;;;;5010269;28;20238;-56
2023/04/17 13:31:42;;;;;;;13.43;10.67;;;;;;;;;;5003753;28;20810;-52
2023/04/17 13:34:09;;;;;;;12.70;11.10;;;;;;;;;;4992503;28;20317;-53
2023/04/17 13:36:35;;;;;;;14.03;11.40;;;;;;;;;;5008281;28;20680;-52
2023/04/17 13:39:04;;;;;;;12.73;10.67;;;;;;;;;;4999954;28;20258;-51
2023/04/17 13:41:30;;;;;;;13.67;12.00;;;;;;;;;;5007677;28;20288;-52
2023/04/17 13:43:57;;;;;;;12.13;10.93;;;;;;;;;;5005498;28;20623;-52
2023/04/17 13:46:24;;;;;;;12.70;11.27;;;;;;;;;;5006487;28;20233;-52
2023/04/17 13:48:51;;;;;;;13.80;11.60;;;;;;;;;;5005828;28;20248;-52
2023/04/17 13:51:18;;;;;;;13.07;11.73;;;;;;;;;;4994715;28;20735;-52
2023/04/17 13:53:45;;;;;;;13.90;12.40;;;;;;;;;;5007531;28;20315;-54
2023/04/17 13:56:12;;;;;;;15.73;13.17;;;;;;;;;;4998948;28;20333;-52
2023/04/17 13:58:39;;;;;;;17.03;13.67;;;;;;;;;;5006024;28;20265;-53
2023/04/17 14:01:06;;;;;;;17.83;13.37;;;;;;;;;;5007068;28;20275;-51
2023/04/17 14:03:32;;;;;;;15.37;13.73;;;;;;;;;;5005435;28;20240;-52
2023/04/17 14:06:00;;;;;;;14.47;12.77;;;;;;;;;;5003712;28;20328;-54
2023/04/17 14:08:26;;;;;;;15.37;13.77;;;;;;;;;;5001541;28;20238;-54
2023/04/17 14:10:53;;;;;;;15.73;14.10;;;;;;;;;;5000142;28;20327;-54
2023/04/17 14:13:20;;;;;;;23.37;15.07;;;;;;;;;;4999898;28;20237;-53
2023/04/17 14:15:47;;;;;;;15.80;13.37;;;;;;;;;;5002222;28;20712;-52
2023/04/17 14:18:14;;;;;;;15.40;13.60;;;;;;;;;;5004155;28;20311;-54
2023/04/17 14:20:40;;;;;;;15.60;13.37;;;;;;;;;;5003354;28;20229;-52
2023/04/17 14:23:08;;;;;;;15.67;13.57;;;;;;;;;;5001394;28;20244;-53